Ukiah, CA

10:48 PM PST on December 26, 2014 (GMT -0800)
Pine Ridge | Change Station
CLOSE
Current Station
Personal Weather Station
Location: Ukiah, CA
Elevation: 1391 ft
Nearby Weather Stations

Elev 1391 ft 39.12 °N, 123.28 °W | Updated 6 seconds ago

Clear
Clear
37.2 °F
Feels Like 37 °F
N
0.0
Wind Variable Wind from SW
Gusts 0.0 mph

Today
High -- | Low -- °F
--% Chance of Precip.
Yesterday
High -- | Low -- °F
Precip. -- in
7:30 AM 4:56 PM
Waxing Crescent, 33% visible
Pressure 30.28 in
Visibility 9.0 miles
Clouds Clear
Windchill 37 °F
Dew Point 34 °F
Humidity 88%
Rainfall 0.00 in
Snow Depth Not available.
UV 0 out of 12
Pollen 2.80 out of 12
Air Quality Not available.
Flu Activity Not available.
METAR KUKI 270556Z AUTO 00000KT 9SM CLR 02/00 A3028 RMK AO2 SLP254 T00170000 10100 20017 53018

More Conditions Fewer Conditions

Pressure 30.28 in
Visibility 9.0 miles
Clouds Clear
Windchill 37 °F
Dew Point 34 °F
Humidity 88%
Rainfall 0.00 in
Snow Depth Not available.
UV 0 out of 12
Pollen 2.80 out of 12
Air Quality Not available.
Flu Activity Not available.
METAR KUKI 270556Z AUTO 00000KT 9SM CLR 02/00 A3028 RMK AO2 SLP254 T00170000 10100 20017 53018

More Conditions Fewer Conditions

10-Day Weather Forecast

Almanac

Astronomy

Dec. 26, 2014 Rise Set
Actual Time
Civil Twilight
Nautical Twilight
Astronomical Twilight
Moon
Length of Visible Light
Length of Day
Tomorrow will be .
, % of the Moon is Illuminated

Today's Extremes

State Highs State Lows

Community

WunderPhotos

Upload Photos

1,780,863 photos uploaded!

WunderBlogs® & News

Nearby

Air Quality

  Air Quality AQ Index Pollutant
Not available.

Snow Depth

Station Depth Elevation

Earthquake Activity

City Distance Mag. Time & Date
Minimum magnitude displayed is 2.5.

Coastal Water Temperatures

Place Temperature

Nearby Weather Stations